Time;durP1;ratioP1;P1;durP2;ratioP2;P2;SDS_P1;SDS_P2;PMS_P1;PMS_P2;Temp;Humidity;BMP_temperature;BMP_pressure;BME280_temperature;BME280_humidity;BME280_pressure;Samples;Min_cycle;Max_cycle;Signal;HPM_P1;HPM_P2
2022/09/30 00:00:33;;;;;;;18.77;17.67;;;9.20;93.00;;;;;;5026738;28;20453;-73
2022/09/30 00:03:01;;;;;;;19.00;18.00;;;9.10;92.60;;;;;;5027861;28;20485;-73
2022/09/30 00:05:28;;;;;;;19.73;18.53;;;9.10;92.60;;;;;;5031673;28;20482;-73
2022/09/30 00:07:55;;;;;;;18.33;17.23;;;9.10;92.90;;;;;;5028173;28;20470;-76
2022/09/30 00:10:22;;;;;;;18.73;17.60;;;9.20;92.90;;;;;;5025651;28;20470;-73
2022/09/30 00:12:51;;;;;;;19.90;18.53;;;9.20;92.60;;;;;;5028747;28;20917;-74
2022/09/30 00:15:18;;;;;;;18.30;17.30;;;9.30;92.30;;;;;;5028705;28;21363;-73
2022/09/30 00:17:45;;;;;;;19.97;18.73;;;9.30;92.10;;;;;;5028888;28;20498;-73
2022/09/30 00:20:14;;;;;;;19.70;18.50;;;9.30;91.80;;;;;;5024230;28;20463;-73
2022/09/30 00:22:42;;;;;;;18.80;17.77;;;9.30;91.90;;;;;;5028847;28;20481;-73
2022/09/30 00:25:09;;;;;;;19.27;18.03;;;9.20;92.40;;;;;;5029473;28;20463;-73
2022/09/30 00:27:36;;;;;;;18.90;17.77;;;9.20;93.00;;;;;;5026882;28;20467;-74
2022/09/30 00:30:03;;;;;;;19.17;18.07;;;9.20;93.10;;;;;;5020474;28;20457;-74
2022/09/30 00:32:30;;;;;;;19.93;18.73;;;9.30;93.10;;;;;;5028279;28;20461;-73
2022/09/30 00:34:57;;;;;;;18.27;17.27;;;9.30;93.20;;;;;;5028930;28;20466;-73
2022/09/30 00:37:25;;;;;;;19.67;18.13;;;9.40;92.80;;;;;;5027753;28;20466;-73
2022/09/30 00:39:52;;;;;;;19.67;18.67;;;9.40;92.90;;;;;;5025240;28;20448;-72
2022/09/30 00:42:19;;;;;;;19.23;18.03;;;9.50;92.90;;;;;;5028470;28;20482;-73
2022/09/30 00:44:49;;;;;;;19.10;18.10;;;9.50;92.20;;;;;;5025988;28;20494;-73
2022/09/30 00:47:33;;;;;;;18.93;17.63;;;9.50;92.10;;;;;;5029397;28;20488;-73
2022/09/30 00:50:06;;;;;;;20.10;18.80;;;9.50;92.50;;;;;;5030038;28;20799;-73
2022/09/30 00:52:34;;;;;;;20.27;18.80;;;9.50;92.60;;;;;;5023684;28;20538;-73
2022/09/30 00:55:04;;;;;;;20.70;19.40;;;9.50;92.00;;;;;;5035690;28;20460;-73
2022/09/30 00:57:31;;;;;;;20.30;19.23;;;9.50;92.00;;;;;;5027373;28;20461;-73
2022/09/30 00:59:58;;;;;;;19.83;18.87;;;9.50;91.80;;;;;;5026993;28;20822;-74
2022/09/30 01:02:25;;;;;;;20.50;19.20;;;9.50;92.20;;;;;;5028567;28;20487;-73
2022/09/30 01:04:53;;;;;;;19.73;18.63;;;9.40;92.70;;;;;;5023475;28;20546;-73
2022/09/30 01:07:23;;;;;;;18.37;17.37;;;9.40;93.00;;;;;;5027268;28;20469;-73
2022/09/30 01:09:53;;;;;;;19.20;18.10;;;9.50;93.20;;;;;;5025983;28;20475;-73
2022/09/30 01:12:23;;;;;;;19.57;18.27;;;9.50;93.00;;;;;;5026089;28;20551;-74
2022/09/30 01:14:53;;;;;;;19.90;18.80;;;9.60;94.00;;;;;;5035900;28;20455;-74
2022/09/30 01:17:32;;;;;;;19.63;18.33;;;9.50;93.90;;;;;;5028279;28;20530;-74
2022/09/30 01:20:29;;;;;;;19.80;18.67;;;9.60;93.60;;;;;;5020289;28;20447;-74
2022/09/30 01:23:14;;;;;;;20.37;18.83;;;9.70;93.00;;;;;;5026995;28;20477;-74
2022/09/30 01:26:00;;;;;;;19.30;18.10;;;9.60;92.60;;;;;;5028919;28;20459;-74
2022/09/30 01:28:50;;;;;;;20.47;19.17;;;9.70;92.50;;;;;;5025452;28;20837;-75
2022/09/30 01:31:42;;;;;;;19.77;18.57;;;9.70;92.50;;;;;;5019401;28;20461;-73
2022/09/30 01:34:16;;;;;;;19.17;18.07;;;9.70;92.30;;;;;;5026747;28;20474;-73
2022/09/30 01:36:57;;;;;;;19.87;18.67;;;9.70;92.30;;;;;;5027812;28;20810;-73
2022/09/30 01:39:34;;;;;;;19.63;18.47;;;9.70;92.00;;;;;;5026238;28;20995;-73
2022/09/30 01:42:10;;;;;;;19.77;18.70;;;9.70;91.90;;;;;;5026826;28;20938;-73
2022/09/30 01:44:45;;;;;;;19.97;18.77;;;9.70;92.00;;;;;;5032388;28;20489;-73
2022/09/30 01:47:17;;;;;;;19.57;18.40;;;9.60;92.20;;;;;;5027524;28;20531;-73
2022/09/30 01:49:48;;;;;;;20.33;19.10;;;9.60;92.50;;;;;;5026990;28;20851;-73
2022/09/30 01:52:19;;;;;;;19.47;18.00;;;9.60;93.00;;;;;;5029811;28;20954;-73
2022/09/30 01:54:50;;;;;;;20.03;18.73;;;9.60;93.20;;;;;;5024992;28;20478;-73
2022/09/30 01:57:21;;;;;;;19.73;18.27;;;9.60;93.50;;;;;;5023847;28;22355;-73
2022/09/30 01:59:55;;;;;;;21.07;19.80;;;9.60;93.40;;;;;;5027312;28;20460;-73
2022/09/30 02:02:26;;;;;;;20.73;19.30;;;9.60;93.40;;;;;;5027122;28;20972;-73
2022/09/30 02:04:58;;;;;;;20.00;18.90;;;9.70;93.20;;;;;;5027776;28;20574;-72
2022/09/30 02:07:30;;;;;;;19.67;18.57;;;9.70;94.00;;;;;;5025852;28;20824;-71
2022/09/30 02:10:03;;;;;;;18.80;17.80;;;9.70;93.60;;;;;;5024612;28;20871;-71
2022/09/30 02:12:45;;;;;;;21.47;20.23;;;9.70;93.40;;;;;;5023946;28;20546;-71
2022/09/30 02:15:15;;;;;;;20.17;18.87;;;9.70;93.50;;;;;;5031607;28;20864;-71
2022/09/30 02:17:47;;;;;;;20.67;19.47;;;9.70;93.40;;;;;;5029163;28;20545;-71
2022/09/30 02:20:20;;;;;;;20.40;19.10;;;9.70;93.10;;;;;;5029674;28;21005;-71
2022/09/30 02:22:51;;;;;;;22.87;21.57;;;9.70;93.30;;;;;;5019007;28;20567;-71
2022/09/30 02:25:24;;;;;;;22.07;20.80;;;9.70;93.30;;;;;;5025934;28;20556;-71
2022/09/30 02:27:57;;;;;;;19.57;18.47;;;9.70;93.50;;;;;;5027142;28;20544;-71
2022/09/30 02:30:26;;;;;;;20.10;18.77;;;9.70;93.50;;;;;;5024582;28;20460;-71
2022/09/30 02:32:57;;;;;;;20.20;18.87;;;9.60;93.50;;;;;;5025759;28;20560;-71
2022/09/30 02:35:28;;;;;;;21.63;20.27;;;9.60;93.40;;;;;;5027304;28;20470;-71
2022/09/30 02:37:58;;;;;;;21.40;19.70;;;9.60;93.60;;;;;;5026797;28;20549;-71
2022/09/30 02:40:31;;;;;;;21.20;19.67;;;9.60;93.70;;;;;;5026292;28;20466;-71
2022/09/30 02:42:58;;;;;;;21.00;19.50;;;9.60;93.70;;;;;;5026126;28;20485;-71
2022/09/30 02:45:25;;;;;;;20.80;19.40;;;9.60;93.60;;;;;;5025333;28;20955;-71
2022/09/30 02:48:11;;;;;;;20.60;19.40;;;9.50;93.60;;;;;;5027359;28;20463;-73
2022/09/30 02:50:47;;;;;;;21.03;19.93;;;9.50;93.80;;;;;;5022583;28;20466;-70
2022/09/30 02:53:23;;;;;;;20.30;18.93;;;9.40;93.90;;;;;;5027061;28;20812;-71
2022/09/30 02:56:13;;;;;;;27.03;25.47;;;9.40;94.10;;;;;;5024820;28;20479;-71
2022/09/30 02:58:42;;;;;;;21.93;20.43;;;9.40;94.20;;;;;;5020067;28;20455;-71
2022/09/30 03:01:10;;;;;;;21.63;20.23;;;9.40;94.30;;;;;;5026849;28;20453;-72
2022/09/30 03:03:41;;;;;;;22.63;21.10;;;9.40;94.20;;;;;;5025506;28;20841;-71
2022/09/30 03:06:09;;;;;;;20.63;19.23;;;9.40;94.20;;;;;;5029399;28;20509;-71
2022/09/30 03:08:36;;;;;;;35.57;33.33;;;9.50;94.20;;;;;;5026338;28;20469;-70
2022/09/30 03:11:04;;;;;;;26.53;25.03;;;9.40;94.20;;;;;;5024633;28;20475;-70
2022/09/30 03:13:54;;;;;;;24.67;23.07;;;9.40;94.30;;;;;;5025362;28;20558;-70
2022/09/30 03:16:35;;;;;;;18.10;17.00;;;9.50;94.10;;;;;;5021440;28;20454;-70
2022/09/30 03:19:22;;;;;;;30.53;29.03;;;9.40;94.10;;;;;;5027045;28;20463;-71
2022/09/30 03:22:14;;;;;;;22.53;21.13;;;9.40;94.20;;;;;;5028701;28;20462;-70
2022/09/30 03:24:58;;;;;;;34.83;32.90;;;9.40;94.50;;;;;;5028263;28;20980;-71
2022/09/30 03:27:34;;;;;;;22.20;20.60;;;9.40;94.40;;;;;;5031194;28;20513;-71
2022/09/30 03:30:05;;;;;;;21.27;19.57;;;9.40;94.40;;;;;;5030525;28;20467;-71
2022/09/30 03:32:48;;;;;;;20.77;19.57;;;9.40;94.30;;;;;;5024967;28;20947;-71
2022/09/30 03:35:23;;;;;;;19.13;17.90;;;9.50;94.20;;;;;;5027680;28;21006;-71
2022/09/30 03:37:59;;;;;;;34.90;32.90;;;9.50;94.20;;;;;;5029387;28;20463;-71
2022/09/30 03:40:35;;;;;;;22.20;20.70;;;9.50;94.40;;;;;;5031728;28;20469;-72
2022/09/30 03:43:08;;;;;;;31.20;29.10;;;9.50;94.70;;;;;;5028032;28;20577;-72
2022/09/30 03:45:38;;;;;;;26.03;24.03;;;9.60;94.60;;;;;;5029944;28;20460;-71
2022/09/30 03:48:08;;;;;;;28.20;26.30;;;9.60;94.40;;;;;;5028144;28;20463;-71
2022/09/30 03:50:38;;;;;;;35.13;33.23;;;9.60;94.50;;;;;;5029228;28;20803;-72
2022/09/30 03:53:11;;;;;;;28.07;25.97;;;9.60;94.40;;;;;;5026627;28;20522;-72
2022/09/30 03:55:46;;;;;;;22.30;20.57;;;9.60;94.30;;;;;;5029182;28;20462;-72
2022/09/30 03:58:13;;;;;;;28.97;27.27;;;9.70;94.20;;;;;;5030343;28;20469;-74
2022/09/30 04:00:46;;;;;;;31.40;29.30;;;9.70;94.20;;;;;;5032472;28;20462;-72
2022/09/30 04:03:13;;;;;;;36.70;34.60;;;9.60;94.00;;;;;;5028449;28;20481;-73
2022/09/30 04:05:41;;;;;;;25.10;23.40;;;9.60;94.00;;;;;;5031903;28;20451;-71
2022/09/30 04:08:08;;;;;;;25.47;23.97;;;9.50;93.80;;;;;;5030855;28;20463;-71
2022/09/30 04:10:35;;;;;;;20.83;19.43;;;9.40;94.10;;;;;;5027522;28;20465;-71
2022/09/30 04:13:02;;;;;;;37.07;34.83;;;9.40;94.00;;;;;;5028343;28;20849;-71
2022/09/30 04:15:29;;;;;;;22.40;20.60;;;9.40;94.20;;;;;;5030605;28;20611;-72
2022/09/30 04:17:56;;;;;;;30.47;28.80;;;9.30;94.40;;;;;;5029369;28;20455;-72
2022/09/30 04:20:23;;;;;;;20.13;18.73;;;9.30;94.60;;;;;;5031376;28;20466;-72
2022/09/30 04:22:51;;;;;;;33.50;31.60;;;9.30;94.80;;;;;;5028221;28;20520;-72
2022/09/30 04:25:18;;;;;;;35.30;33.07;;;9.30;94.90;;;;;;5033428;28;20468;-71
2022/09/30 04:27:45;;;;;;;31.97;30.23;;;9.30;95.00;;;;;;5030168;28;20503;-72
2022/09/30 04:30:12;;;;;;;30.37;28.40;;;9.40;94.20;;;;;;5027390;28;20463;-72
2022/09/30 04:32:44;;;;;;;33.97;31.93;;;9.30;94.10;;;;;;5028428;28;20802;-72
2022/09/30 04:35:12;;;;;;;29.20;27.47;;;9.30;94.20;;;;;;5028824;28;20481;-72
2022/09/30 04:37:42;;;;;;;19.33;18.23;;;9.30;94.10;;;;;;5029600;28;20458;-73
2022/09/30 04:40:11;;;;;;;32.80;30.93;;;9.30;94.40;;;;;;5027189;28;20473;-72
2022/09/30 04:42:39;;;;;;;26.03;24.37;;;9.20;94.40;;;;;;5028584;28;20473;-72
2022/09/30 04:45:08;;;;;;;28.90;27.07;;;9.20;94.70;;;;;;5029458;28;20489;-73
2022/09/30 04:47:35;;;;;;;22.43;20.43;;;9.20;94.90;;;;;;5018445;28;20467;-72
2022/09/30 04:50:02;;;;;;;22.30;20.50;;;9.20;94.90;;;;;;5026743;28;20976;-72
2022/09/30 04:52:29;;;;;;;27.70;26.10;;;9.20;95.20;;;;;;5028216;28;20453;-73
2022/09/30 04:54:57;;;;;;;23.03;21.33;;;9.20;95.30;;;;;;5029756;28;20482;-76
2022/09/30 04:57:26;;;;;;;36.27;34.10;;;9.20;95.30;;;;;;5029917;28;20921;-75
2022/09/30 04:59:53;;;;;;;27.80;26.20;;;9.20;95.20;;;;;;5034857;28;20983;-74
2022/09/30 05:02:20;;;;;;;34.27;32.03;;;9.20;95.10;;;;;;5024818;28;20456;-71
2022/09/30 05:04:47;;;;;;;29.50;27.17;;;9.20;95.20;;;;;;5031760;28;20569;-71
2022/09/30 05:07:13;;;;;;;36.03;33.93;;;9.10;95.30;;;;;;5027884;28;20510;-72
2022/09/30 05:09:40;;;;;;;23.43;21.73;;;9.10;95.10;;;;;;5026218;28;20808;-71
2022/09/30 05:12:07;;;;;;;27.60;25.80;;;9.10;94.90;;;;;;5026450;28;20457;-71
2022/09/30 05:14:35;;;;;;;19.87;18.37;;;9.10;95.00;;;;;;5031934;28;21095;-71
2022/09/30 05:17:03;;;;;;;28.27;26.27;;;9.10;95.00;;;;;;5030107;28;20454;-71
2022/09/30 05:19:30;;;;;;;23.83;22.10;;;9.00;94.80;;;;;;5025577;28;20467;-71
2022/09/30 05:21:57;;;;;;;30.60;28.20;;;8.90;94.80;;;;;;5020069;28;20461;-75
2022/09/30 05:24:24;;;;;;;22.67;20.77;;;8.80;95.40;;;;;;5030365;28;20568;-73
2022/09/30 05:26:51;;;;;;;23.10;21.23;;;8.70;96.00;;;;;;5024532;28;20974;-73
2022/09/30 05:29:18;;;;;;;24.70;22.23;;;8.70;96.10;;;;;;5023441;28;20532;-72
2022/09/30 05:31:46;;;;;;;21.70;19.87;;;8.70;96.30;;;;;;5031044;28;20535;-72
2022/09/30 05:34:15;;;;;;;68.20;25.30;;;8.70;96.70;;;;;;5040986;28;20591;-73
2022/09/30 05:36:42;;;;;;;922.38;131.48;;;8.70;96.50;;;;;;5032083;28;20539;-71
2022/09/30 05:39:09;;;;;;;30.02;27.08;;;8.70;97.00;;;;;;5026676;28;20205;-70
2022/09/30 05:41:37;;;;;;;26.00;23.87;;;8.70;97.40;;;;;;5028639;28;20630;-72
2022/09/30 05:44:04;;;;;;;33.00;29.90;;;8.80;96.90;;;;;;5031105;28;20897;-71
2022/09/30 05:46:31;;;;;;;29.10;27.15;;;9.00;96.40;;;;;;5034888;28;20546;-71
2022/09/30 05:48:59;;;;;;;30.77;28.70;;;9.00;95.50;;;;;;5025053;28;20204;-72
2022/09/30 05:51:26;;;;;;;27.57;25.47;;;8.90;95.60;;;;;;5029205;28;20618;-69
2022/09/30 05:53:53;;;;;;;26.53;24.50;;;8.90;95.80;;;;;;5031537;28;20479;-71
2022/09/30 05:56:20;;;;;;;23.67;21.67;;;9.00;95.60;;;;;;5028319;28;20539;-71
2022/09/30 05:58:49;;;;;;;24.08;21.98;;;9.00;95.40;;;;;;5026252;28;20474;-72
2022/09/30 06:01:16;;;;;;;35.43;33.10;;;9.00;95.20;;;;;;5029155;28;20699;-72
2022/09/30 06:03:45;;;;;;;30.87;28.73;;;9.00;94.80;;;;;;5029970;28;20518;-71
2022/09/30 06:06:14;;;;;;;22.70;20.90;;;9.00;94.80;;;;;;5026383;28;20545;-74
2022/09/30 06:08:42;;;;;;;27.70;25.90;;;9.10;94.50;;;;;;5026951;28;20966;-74
2022/09/30 06:11:12;;;;;;;26.80;25.00;;;9.10;94.40;;;;;;5030270;28;21009;-74
2022/09/30 06:13:39;;;;;;;37.92;35.92;;;9.10;94.10;;;;;;5033768;28;20503;-73
2022/09/30 06:16:08;;;;;;;30.17;27.97;;;9.20;93.70;;;;;;5027169;28;20731;-73
2022/09/30 06:18:35;;;;;;;23.63;21.47;;;9.20;94.00;;;;;;5026810;28;21037;-73
2022/09/30 06:21:04;;;;;;;30.70;28.43;;;9.20;93.90;;;;;;5025186;28;20549;-74
2022/09/30 06:23:34;;;;;;;23.33;21.63;;;9.30;93.80;;;;;;5025600;28;20482;-74
2022/09/30 06:26:02;;;;;;;24.60;23.00;;;9.40;93.60;;;;;;5029349;28;21142;-74
2022/09/30 06:28:29;;;;;;;29.00;26.83;;;9.40;93.60;;;;;;5022529;28;20458;-74
2022/09/30 06:30:56;;;;;;;36.23;34.00;;;9.50;93.30;;;;;;5031008;28;20485;-73
2022/09/30 06:33:23;;;;;;;28.37;26.57;;;9.60;92.80;;;;;;5028149;28;21058;-74
2022/09/30 06:35:50;;;;;;;31.90;29.60;;;9.70;92.40;;;;;;5024442;28;20535;-73
2022/09/30 06:38:17;;;;;;;30.80;28.60;;;9.80;92.20;;;;;;5025515;28;20558;-74
2022/09/30 06:40:48;;;;;;;24.80;23.20;;;9.80;91.80;;;;;;5025255;28;20550;-72
2022/09/30 06:43:15;;;;;;;31.40;29.30;;;9.80;91.90;;;;;;5027481;28;20486;-73
2022/09/30 06:45:42;;;;;;;34.43;32.27;;;9.90;91.90;;;;;;5032689;28;20483;-72
2022/09/30 06:48:10;;;;;;;41.33;38.70;;;10.10;91.50;;;;;;5020696;28;20633;-74
2022/09/30 06:50:37;;;;;;;36.17;33.83;;;10.20;91.50;;;;;;5026793;28;20453;-75
2022/09/30 06:53:07;;;;;;;28.97;26.97;;;10.40;90.90;;;;;;5039488;28;20501;-73
2022/09/30 06:55:38;;;;;;;26.10;24.20;;;10.40;90.80;;;;;;5038011;28;20450;-73
2022/09/30 06:58:10;;;;;;;54.03;39.37;;;10.60;90.40;;;;;;5031464;28;20532;-75
2022/09/30 07:00:37;;;;;;;30.13;28.30;;;10.70;90.60;;;;;;5039236;28;20452;-72
2022/09/30 07:03:08;;;;;;;41.43;38.73;;;10.70;91.10;;;;;;5030092;28;20490;-71
2022/09/30 07:05:36;;;;;;;35.23;33.00;;;10.80;90.60;;;;;;5025488;28;20475;-71
2022/09/30 07:08:03;;;;;;;31.23;29.30;;;10.90;90.10;;;;;;5030062;28;20496;-71
2022/09/30 07:10:30;;;;;;;39.80;37.20;;;10.90;89.80;;;;;;5028820;28;20459;-72
2022/09/30 07:12:58;;;;;;;32.83;30.80;;;11.10;89.70;;;;;;5031038;28;20484;-70
2022/09/30 07:15:27;;;;;;;27.87;25.87;;;11.20;89.30;;;;;;5026717;28;21080;-71
2022/09/30 07:17:56;;;;;;;29.80;27.50;;;11.30;89.00;;;;;;5027631;28;20464;-71
2022/09/30 07:20:24;;;;;;;31.57;29.47;;;11.50;88.60;;;;;;5027395;28;20456;-71
2022/09/30 07:22:51;;;;;;;41.57;38.87;;;11.60;88.10;;;;;;5029622;28;20479;-70
2022/09/30 07:25:19;;;;;;;30.70;28.50;;;11.70;87.80;;;;;;5042357;28;20677;-71
2022/09/30 07:27:46;;;;;;;27.97;25.87;;;11.70;88.60;;;;;;5037773;28;20470;-71
2022/09/30 07:30:13;;;;;;;32.37;30.37;;;11.80;88.00;;;;;;5027189;28;20985;-71
2022/09/30 07:32:42;;;;;;;32.90;30.70;;;11.90;86.80;;;;;;5029987;28;20464;-71
2022/09/30 07:35:09;;;;;;;34.37;32.17;;;11.90;86.60;;;;;;5046521;28;20555;-77
2022/09/30 07:37:36;;;;;;;30.57;28.13;;;12.00;86.00;;;;;;5030691;28;20535;-72
2022/09/30 07:40:08;;;;;;;39.80;37.27;;;12.20;85.40;;;;;;5037989;28;20513;-73
2022/09/30 07:42:50;;;;;;;35.13;32.80;;;12.10;85.30;;;;;;5030034;28;20463;-74
2022/09/30 07:45:18;;;;;;;34.67;32.30;;;12.40;85.10;;;;;;5026604;28;20491;-74
2022/09/30 07:47:46;;;;;;;37.13;34.93;;;12.40;85.00;;;;;;5029290;28;20490;-75
2022/09/30 07:50:14;;;;;;;46.57;43.93;;;12.40;84.70;;;;;;5038102;28;20483;-74
2022/09/30 07:52:41;;;;;;;37.87;35.40;;;12.60;84.30;;;;;;5030657;28;20966;-74
2022/09/30 07:55:08;;;;;;;37.30;34.77;;;12.80;82.70;;;;;;5041966;28;20467;-73
2022/09/30 07:57:35;;;;;;;34.40;32.13;;;13.00;81.90;;;;;;5023240;28;20454;-73
2022/09/30 08:00:03;;;;;;;35.77;33.30;;;13.00;81.40;;;;;;5028330;28;20555;-73
2022/09/30 08:02:30;;;;;;;38.40;36.00;;;12.90;81.30;;;;;;5024224;28;20473;-75
2022/09/30 08:04:59;;;;;;;52.07;49.03;;;13.00;81.90;;;;;;5022123;28;21025;-73
2022/09/30 08:07:30;;;;;;;36.57;34.00;;;13.00;81.80;;;;;;5028310;28;20461;-74
2022/09/30 08:09:57;;;;;;;50.50;47.60;;;13.20;81.50;;;;;;5040818;28;20469;-74
2022/09/30 08:12:24;;;;;;;41.50;38.53;;;13.40;80.70;;;;;;5027902;28;20452;-74
2022/09/30 08:14:51;;;;;;;35.47;32.97;;;13.50;80.50;;;;;;5038983;28;20877;-74
2022/09/30 08:17:18;;;;;;;43.40;40.80;;;13.50;80.50;;;;;;5028174;28;20818;-73
2022/09/30 08:19:45;;;;;;;42.13;39.40;;;13.50;80.20;;;;;;5026859;28;20468;-73
2022/09/30 08:22:15;;;;;;;38.00;35.40;;;13.50;79.70;;;;;;5027895;28;20471;-74
2022/09/30 08:24:42;;;;;;;35.27;32.90;;;13.60;80.10;;;;;;5021334;28;20472;-75
2022/09/30 08:27:09;;;;;;;36.43;33.93;;;13.60;79.80;;;;;;5026608;28;20470;-73
2022/09/30 08:29:35;;;;;;;38.60;36.07;;;13.60;79.60;;;;;;5031731;28;20459;-73
2022/09/30 08:32:02;;;;;;;50.83;47.60;;;13.70;79.60;;;;;;5029096;28;20802;-75
2022/09/30 08:34:34;;;;;;;38.13;35.50;;;13.80;79.30;;;;;;5034196;28;20501;-73
2022/09/30 08:37:00;;;;;;;40.33;37.73;;;14.00;78.50;;;;;;5031603;28;20530;-73
2022/09/30 08:39:29;;;;;;;51.37;48.17;;;14.10;78.30;;;;;;5024549;28;20474;-73
2022/09/30 08:42:10;;;;;;;38.13;35.73;;;14.00;78.40;;;;;;5029138;28;20495;-77
2022/09/30 08:44:43;;;;;;;35.07;32.97;;;14.00;78.50;;;;;;5024311;28;20947;-73
2022/09/30 08:47:36;;;;;;;51.90;48.70;;;14.00;78.30;;;;;;5025972;28;20453;-75
2022/09/30 08:50:15;;;;;;;37.60;35.13;;;14.20;77.80;;;;;;5022097;28;20468;-75
2022/09/30 08:52:45;;;;;;;45.00;42.10;;;14.10;78.60;;;;;;5025069;28;20484;-73
2022/09/30 08:55:19;;;;;;;37.83;35.43;;;14.00;78.10;;;;;;5024529;28;20650;-73
2022/09/30 08:57:46;;;;;;;39.00;36.10;;;13.80;78.80;;;;;;5024245;28;20942;-73
2022/09/30 09:00:15;;;;;;;43.90;40.90;;;13.50;79.50;;;;;;5023401;28;20825;-74
2022/09/30 09:02:47;;;;;;;44.37;40.93;;;13.20;80.70;;;;;;5027075;28;20498;-75
2022/09/30 09:05:22;;;;;;;37.67;34.70;;;13.20;81.20;;;;;;5025370;28;21138;-75
2022/09/30 09:08:01;;;;;;;39.47;36.90;;;13.40;80.50;;;;;;5025467;28;21031;-80
2022/09/30 09:10:36;;;;;;;39.43;36.73;;;13.30;80.90;;;;;;5023692;28;20502;-74
2022/09/30 09:13:13;;;;;;;47.70;44.53;;;13.40;80.50;;;;;;5015009;28;20526;-74
2022/09/30 09:15:53;;;;;;;37.40;34.70;;;13.50;79.60;;;;;;5036883;28;20461;-73
2022/09/30 09:18:41;;;;;;;38.97;36.37;;;13.30;80.70;;;;;;5029264;28;20456;-73
2022/09/30 09:21:20;;;;;;;40.17;37.33;;;13.60;79.80;;;;;;5026329;28;20453;-74
2022/09/30 09:23:48;;;;;;;39.27;36.67;;;13.50;80.40;;;;;;5030228;28;20489;-74
2022/09/30 09:26:17;;;;;;;40.50;37.70;;;13.60;80.40;;;;;;5032562;28;20471;-73
2022/09/30 09:28:56;;;;;;;37.77;35.03;;;13.80;79.90;;;;;;5027877;28;20498;-74
2022/09/30 09:31:24;;;;;;;43.70;40.77;;;13.80;79.00;;;;;;5027379;28;20817;-73
2022/09/30 09:33:52;;;;;;;48.17;44.87;;;13.70;79.10;;;;;;5028818;28;20481;-73
2022/09/30 09:36:31;;;;;;;40.43;37.70;;;13.60;79.70;;;;;;5034478;28;20970;-73
2022/09/30 09:39:15;;;;;;;38.83;36.17;;;13.70;79.60;;;;;;5019393;28;20465;-74
2022/09/30 09:41:50;;;;;;;44.33;41.43;;;13.80;79.10;;;;;;5031729;28;20442;-75
2022/09/30 09:44:25;;;;;;;49.10;45.93;;;13.80;78.70;;;;;;5013635;28;20477;-73
2022/09/30 09:47:04;;;;;;;42.93;40.30;;;13.80;78.80;;;;;;5028679;28;20556;-73
2022/09/30 09:49:33;;;;;;;51.93;48.33;;;14.00;78.10;;;;;;5035113;28;20481;-75
2022/09/30 09:52:22;;;;;;;41.77;39.27;;;14.20;77.30;;;;;;5032874;28;20502;-75
2022/09/30 09:54:55;;;;;;;36.80;34.40;;;14.20;76.90;;;;;;5030979;28;20459;-74
2022/09/30 09:57:26;;;;;;;39.43;36.63;;;14.30;76.30;;;;;;5027247;28;20545;-74
2022/09/30 09:59:57;;;;;;;52.53;49.23;;;14.50;76.20;;;;;;5033840;28;20862;-73
2022/09/30 10:02:27;;;;;;;40.80;38.00;;;14.60;76.40;;;;;;5028185;28;20455;-74
2022/09/30 10:04:58;;;;;;;37.03;34.63;;;14.90;75.20;;;;;;5027717;28;20465;-73
2022/09/30 10:07:27;;;;;;;50.60;47.60;;;14.80;74.70;;;;;;5027164;28;20495;-75
2022/09/30 10:10:08;;;;;;;38.57;36.20;;;14.80;74.90;;;;;;5032226;28;20482;-75
2022/09/30 10:12:37;;;;;;;40.00;37.10;;;14.70;75.00;;;;;;5014510;28;20452;-74
2022/09/30 10:15:15;;;;;;;43.70;40.70;;;14.70;74.60;;;;;;5025838;28;20826;-74
2022/09/30 10:17:42;;;;;;;45.80;43.00;;;14.70;74.90;;;;;;5019796;28;20482;-73
2022/09/30 10:20:22;;;;;;;50.53;47.23;;;14.70;74.60;;;;;;5038821;28;20455;-75
2022/09/30 10:22:50;;;;;;;43.03;40.33;;;14.80;74.50;;;;;;5026066;28;20482;-73
2022/09/30 10:25:21;;;;;;;51.17;47.83;;;14.90;74.30;;;;;;5030083;28;20571;-75
2022/09/30 10:27:55;;;;;;;39.97;37.47;;;14.90;74.30;;;;;;5029691;28;20514;-73
2022/09/30 10:30:37;;;;;;;52.67;49.50;;;15.00;73.90;;;;;;5031380;28;20455;-73
2022/09/30 10:33:18;;;;;;;44.03;41.10;;;15.00;73.60;;;;;;5029402;28;20898;-73
2022/09/30 10:36:08;;;;;;;37.70;35.33;;;15.00;73.70;;;;;;5036918;28;20467;-74
2022/09/30 10:38:37;;;;;;;36.23;34.03;;;15.00;72.10;;;;;;5039146;28;20512;-74
2022/09/30 10:41:05;;;;;;;33.67;31.73;;;15.00;71.20;;;;;;5028973;28;20480;-74
2022/09/30 10:43:42;;;;;;;36.57;34.47;;;15.20;70.10;;;;;;5031448;28;20468;-73
2022/09/30 10:46:09;;;;;;;40.20;38.03;;;15.30;69.50;;;;;;5025087;28;20471;-75
2022/09/30 10:48:38;;;;;;;35.53;33.33;;;15.40;69.30;;;;;;5030344;28;20459;-76
2022/09/30 10:51:16;;;;;;;40.47;37.57;;;15.30;69.30;;;;;;5028561;28;20464;-76
2022/09/30 10:53:43;;;;;;;39.20;37.00;;;15.30;69.30;;;;;;5030216;28;20931;-74
2022/09/30 10:56:10;;;;;;;37.13;35.23;;;15.30;68.00;;;;;;5043994;28;20456;-75
2022/09/30 10:58:46;;;;;;;33.07;31.27;;;15.40;67.10;;;;;;5028144;28;20459;-74
2022/09/30 11:01:21;;;;;;;36.73;34.73;;;15.40;67.40;;;;;;5033096;28;20499;-75
2022/09/30 11:03:57;;;;;;;34.57;32.67;;;15.60;67.60;;;;;;5027741;28;21293;-75
2022/09/30 11:06:24;;;;;;;36.90;35.20;;;15.80;67.30;;;;;;5023887;28;20566;-73
2022/09/30 11:08:57;;;;;;;28.00;26.30;;;16.00;66.20;;;;;;5032586;28;21027;-73
2022/09/30 11:11:29;;;;;;;31.93;30.30;;;15.80;65.90;;;;;;5027533;28;20478;-72
2022/09/30 11:14:11;;;;;;;36.00;34.13;;;16.00;65.60;;;;;;5023195;28;20475;-73
2022/09/30 11:16:49;;;;;;;28.00;26.43;;;16.00;65.00;;;;;;5030628;28;20977;-75
2022/09/30 11:19:22;;;;;;;29.27;27.53;;;16.10;64.60;;;;;;5033215;28;20539;-74
2022/09/30 11:21:53;;;;;;;33.93;32.33;;;16.20;64.10;;;;;;5029609;28;20996;-75
2022/09/30 11:24:29;;;;;;;33.23;31.60;;;16.30;63.70;;;;;;5028200;28;20482;-75
2022/09/30 11:27:04;;;;;;;34.57;32.73;;;16.40;63.90;;;;;;5031176;28;20479;-73
2022/09/30 11:29:52;;;;;;;31.10;29.57;;;16.40;63.60;;;;;;5025237;28;20491;-74
2022/09/30 11:32:35;;;;;;;35.63;33.93;;;16.40;62.00;;;;;;5023946;28;20452;-75
2022/09/30 11:35:14;;;;;;;41.60;39.70;;;16.50;61.50;;;;;;5029588;28;20490;-75
2022/09/30 11:37:57;;;;;;;34.30;32.50;;;16.10;62.60;;;;;;5032936;28;20892;-80
2022/09/30 11:40:38;;;;;;;38.03;36.20;;;16.00;63.50;;;;;;5029750;28;21017;-72
2022/09/30 11:43:20;;;;;;;36.27;34.47;;;16.20;62.50;;;;;;5029136;28;20471;-74
2022/09/30 11:46:20;;;;;;;35.70;34.00;;;16.40;62.20;;;;;;5027986;28;20488;-72
2022/09/30 11:49:08;;;;;;;32.40;30.80;;;16.50;62.80;;;;;;5018434;28;20559;-72
2022/09/30 11:51:43;;;;;;;36.20;34.43;;;16.70;62.70;;;;;;5036198;28;20513;-73
2022/09/30 11:54:34;;;;;;;41.00;38.70;;;16.70;63.60;;;;;;5033032;28;20504;-74
2022/09/30 11:57:07;;;;;;;47.07;44.37;;;17.00;63.70;;;;;;5030895;28;20460;-75
2022/09/30 11:59:41;;;;;;;39.70;37.70;;;17.20;62.00;;;;;;5037494;28;20459;-74
2022/09/30 12:02:29;;;;;;;37.47;35.53;;;17.10;62.20;;;;;;5032000;28;20568;-74
2022/09/30 12:04:59;;;;;;;47.00;44.70;;;17.20;62.30;;;;;;5030188;28;20950;-75
2022/09/30 12:07:40;;;;;;;42.50;40.30;;;17.40;61.80;;;;;;5029375;28;20537;-75
2022/09/30 12:10:20;;;;;;;35.37;33.60;;;17.60;61.40;;;;;;5019723;28;20463;-72
2022/09/30 12:12:50;;;;;;;32.37;30.33;;;17.70;61.30;;;;;;5030047;28;20480;-73
2022/09/30 12:15:20;;;;;;;33.97;32.17;;;17.80;60.50;;;;;;5027723;28;20467;-73
2022/09/30 12:17:53;;;;;;;32.83;31.30;;;17.90;59.70;;;;;;5028901;28;20894;-72
2022/09/30 12:20:27;;;;;;;31.47;29.90;;;18.00;58.80;;;;;;5028452;28;20466;-72
2022/09/30 12:22:59;;;;;;;32.00;30.40;;;18.30;58.20;;;;;;5030299;28;20501;-72
2022/09/30 12:25:31;;;;;;;35.53;33.63;;;18.40;57.50;;;;;;5030342;28;20479;-73
2022/09/30 12:30:15;;;;;;;37.30;35.50;;;18.40;57.50;;;;;;5027869;28;20813;-73
2022/09/30 12:30:59;;;;;;;30.60;29.00;;;18.60;57.10;;;;;;5026298;28;20456;-74
2022/09/30 12:33:40;;;;;;;33.23;31.63;;;18.60;56.30;;;;;;5029649;28;20472;-74
2022/09/30 12:36:54;;;;;;;40.00;38.10;;;18.70;55.90;;;;;;5032143;28;20514;-73
2022/09/30 12:39:50;;;;;;;32.23;30.73;;;18.70;55.80;;;;;;4974342;28;21040;-75
2022/09/30 12:42:43;;;;;;;36.03;34.33;;;18.80;55.40;;;;;;5019936;28;20453;-72
2022/09/30 12:45:28;;;;;;;40.20;38.30;;;18.80;54.50;;;;;;5024022;28;20483;-74
2022/09/30 12:47:57;;;;;;;37.10;35.10;;;18.80;53.70;;;;;;5024441;28;20966;-72
2022/09/30 12:50:28;;;;;;;30.80;29.40;;;18.70;53.90;;;;;;5031288;28;20468;-73
2022/09/30 12:52:56;;;;;;;32.83;31.40;;;18.80;54.20;;;;;;5027211;28;20483;-73
2022/09/30 12:55:29;;;;;;;34.40;32.87;;;18.80;54.40;;;;;;5026480;28;20476;-72
2022/09/30 12:57:59;;;;;;;29.30;27.90;;;18.60;54.60;;;;;;5040774;28;20459;-73